首页
METAR-TAF:

METAR-TAF

机场 :

San Angelo Regional Airport (Mathis Field)

San Angelo, 得克萨斯州, 美国

纬度: 31-21-05N, 经度: 100-29-38W, 海拔: 584米

当前天气观测

该预报发布于1小时和9分钟前的22:51 UTC
风速9节,风向南转南东
温度 37°C
湿度 27%
气压 1007 hPa
能見度: 16.1公里
天空无云

METAR: KSJT 202251Z 15009KT 10SM CLR 37/15 A2973 RMK AO2 SLP038 T03670150

时间: 19:00 (00:00 UTC)

预报

该预报发布于40分钟前的23:20 UTC
预报有效从21日的 00点(UTC)到 21日的 24点(UTC)
风速11节,风向南转南东
能見度: 10公里
多云层高于25000英尺
从 21日的 0400点(UTC)
风速12节,风向,有时为19节阵风
能見度: 10公里
多云层高于25000英尺
从 21日的 1200点(UTC)
风速10节,风向,有时为19节阵风
能見度: 10公里
多云层高于1800英尺
从 21日的 1600点(UTC)
风速10节,风向西南
能見度: 10公里
散云层高于2500英尺

TAF: KSJT 202320Z 2100/2124 16011KT P6SM BKN250 FM210400 17012G19KT P6SM BKN250 FM211200 19010G19KT P6SM BKN018 FM211600 23010KT P6SM SCT025

超过4000个机场的气象观测和天气预报(METAR&TAF报告)。

可查询的气象台以黄色和红色小点在地图上表示。

将鼠标移到小点上方,可查看气象台名称。

然后点击查看天气观测和预报。

如需切换地图:点击带黑十字的绿色按钮放大地图;点击带横线的绿色按钮缩小地图;或者点击绿色箭头查看邻近地区的地图。


METAR-TAF: